Latest Weather Observations for Brisbane

IDQ60901

Issued at 7:05 pm EST Tuesday 2 September 2014 (issued every 10 minutes, with the page automatically refreshed every 10 minutes)

About weather observations | Map of Brisbane area stations | Latest observations for Brisbane area | Other Formats
Station Details ID: 040913 Name: BRISBANE Lat: -27.48 Lon: 153.04 Height: 8.13 m
Data from the previous 72 hours. | See also: Recent months at Brisbane
Date/Time
EST
Tmp

°C
App
Tmp
°C
Dew
Point
°C
Rel
Hum
%
Delta-T

°C
Wind Press
QNH
hPa
Press
MSL
hPa
Rain
since
9 am
mm
Dir
 
Spd
km/h
Gust
km/h
Spd
kts
Gust
kts
02/07:00pm 21.2 18.2 4.3 33 8.2 W 9 17 5 9 1010.7 1010.7 0.0
02/06:30pm 21.9 18.7 5.3 34 8.2 WSW 11 22 6 12 1009.9 1009.9 0.0
02/06:00pm 22.6 19.2 4.2 30 9.0 W 11 22 6 12 1009.3 1009.3 0.0
02/05:30pm 23.5 19.3 4.0 28 9.6 W 15 26 8 14 1008.7 1008.7 0.0
02/05:00pm 24.7 19.7 3.4 25 10.4 W 19 35 10 19 1008.1 1008.1 0.0
02/04:30pm 25.8 20.2 1.2 20 11.6 W 20 39 11 21 1007.3 1007.3 0.0
02/04:00pm 27.4 22.0 2.5 20 12.2 W 20 41 11 22 1006.6 1006.6 0.0
02/03:30pm 28.4 22.8 3.3 20 12.6 W 22 41 12 22 1006.0 1006.0 0.0
02/03:00pm 29.0 26.9 8.1 27 11.4 NNW 9 17 5 9 1005.9 1005.9 0.0
02/02:30pm 28.1 25.9 7.9 28 10.9 NNW 9 17 5 9 1006.2 1006.2 0.0
02/02:00pm 27.4 25.3 8.3 30 10.4 N 9 17 5 9 1007.0 1007.0 0.0
02/01:30pm 27.3 24.6 7.2 28 10.7 NW 11 24 6 13 1007.7 1007.7 0.0
02/01:00pm 26.5 25.1 8.9 33 9.6 NNW 6 13 3 7 1008.5 1008.5 0.0
02/12:30pm 25.9 24.7 9.7 36 8.9 NW 6 9 3 5 1009.5 1009.5 0.0
02/12:00pm 24.6 22.9 8.5 36 8.6 NNW 7 17 4 9 1009.9 1009.9 0.0
02/11:30am 23.7 22.6 10.0 42 7.5 WNW 6 13 3 7 1010.9 1010.9 0.0
02/11:00am 22.0 21.2 9.5 45 6.7 NNE 4 7 2 4 1011.6 1011.6 0.0
02/10:30am 20.8 20.3 9.4 48 6.1 W 2 6 1 3 1012.2 1012.2 0.0
02/10:00am 20.2 19.4 9.7 51 5.6 NE 4 11 2 6 1012.8 1012.8 0.0
02/09:30am 19.3 19.1 10.6 57 4.7 W 2 4 1 2 1013.5 1013.5 0.0
02/09:00am 18.3 17.7 10.4 60 4.2 N 4 7 2 4 1013.6 1013.6 0.0
02/08:30am 16.7 17.6 13.0 79 2.1 CALM 0 2 0 1 1014.0 1014.0 0.0
02/08:00am 15.5 16.4 12.8 84 1.5 CALM 0 0 0 0 1014.2 1014.2 0.0
02/07:30am 14.8 15.7 13.0 89 1.0 CALM 0 2 0 1 1014.2 1014.2 0.0
02/07:00am 13.3 14.1 12.7 96 0.3 CALM 0 0 0 0 1014.2 1014.2 0.0
02/06:30am 12.5 13.1 11.9 96 0.3 CALM 0 0 0 0 1014.1 1014.1 0.0
02/06:00am 12.2 12.6 11.4 95 0.4 SSE 0 0 0 0 1014.0 1014.0 0.0
02/05:30am 12.5 13.0 11.6 94 0.5 SSE 0 0 0 0 1014.0 1014.0 0.0
02/05:00am 12.9 13.5 12.0 94 0.5 CALM 0 0 0 0 1013.8 1013.8 0.0
02/04:30am 13.1 13.7 12.0 93 0.6 CALM 0 0 0 0 1013.7 1013.7 0.0
02/04:00am 13.3 13.9 12.0 92 0.7 CALM 0 0 0 0 1014.0 1014.0 0.0
02/03:30am 13.8 14.6 12.7 93 0.6 SSE 0 0 0 0 1013.8 1013.8 0.0
02/03:00am 14.0 14.9 12.9 93 0.6 CALM 0 0 0 0 1014.1 1014.1 0.0
02/02:30am 14.3 15.3 13.3 94 0.6 CALM 0 0 0 0 1014.2 1014.2 0.0
02/02:00am 14.4 15.4 13.3 93 0.6 CALM 0 0 0 0 1014.6 1014.6 0.0
02/01:30am 14.2 14.8 13.2 94 0.6 NNE 2 7 1 4 1014.8 1014.8 0.0
02/01:00am 14.3 15.3 13.2 93 0.6 CALM 0 0 0 0 1015.1 1015.1 0.0
02/12:30am 14.8 15.7 13.0 89 1.0 CALM 0 0 0 0 1015.3 1015.3 0.0
02/12:00am 15.5 16.4 12.8 84 1.5 N 0 0 0 0 1015.5 1015.5 0.0
 
Date/Time
EST
Tmp

°C
App
Tmp
°C
Dew
Point
°C
Rel
Hum
%
Delta-T

°C
Wind Press
QNH
hPa
Press
MSL
hPa
Rain
since
9 am
mm
Dir
 
Spd
km/h
Gust
km/h
Spd
kts
Gust
kts
01/11:30pm 17.0 17.6 14.3 84 1.5 N 4 7 2 4 1015.4 1015.4 0.0
01/11:00pm 17.2 17.9 14.5 84 1.5 N 4 11 2 6 1015.5 1015.5 0.0
01/10:30pm 17.9 17.8 15.0 83 1.7 N 9 17 5 9 1015.5 1015.5 0.0
01/10:00pm 18.1 19.0 15.2 83 1.7 N 4 11 2 6 1015.6 1015.6 0.0
01/09:30pm 18.4 18.9 15.5 83 1.7 N 7 17 4 9 1015.8 1015.8 0.0
01/09:00pm 18.7 19.5 15.8 83 1.7 N 6 11 3 6 1016.1 1016.1 0.0
01/08:30pm 18.9 19.7 15.8 82 1.8 NNE 6 9 3 5 1016.1 1016.1 0.0
01/08:00pm 19.3 20.1 15.8 80 2.1 N 6 17 3 9 1016.1 1016.1 0.0
01/07:30pm 19.5 20.2 15.6 78 2.3 N 6 17 3 9 1016.2 1016.2 0.0
01/07:00pm 19.6 20.6 15.3 76 2.5 N 4 11 2 6 1015.9 1015.9 0.0
01/06:30pm 19.6 20.1 15.0 75 2.7 N 6 11 3 6 1015.6 1015.6 0.0
01/06:00pm 19.8 20.0 14.8 73 2.9 NNE 7 17 4 9 1015.4 1015.4 0.0
01/05:30pm 20.3 20.2 14.9 71 3.2 NNE 9 20 5 11 1015.4 1015.4 0.0
01/05:00pm 20.9 20.2 14.3 66 3.8 NE 11 24 6 13 1015.5 1015.5 0.0
01/04:30pm 22.0 22.0 14.1 61 4.6 NE 7 17 4 9 1015.0 1015.0 0.0
01/04:00pm 22.0 21.3 14.4 62 4.5 ENE 11 20 6 11 1014.6 1014.6 0.0
01/03:30pm 22.3 21.5 13.9 59 4.9 NE 11 19 6 10 1014.6 1014.6 0.0
01/03:00pm 22.8 22.2 13.6 56 5.3 NNE 9 19 5 10 1014.9 1014.9 0.0
01/02:30pm 23.3 22.4 13.8 55 5.5 ENE 11 19 6 10 1015.1 1015.1 0.0
01/02:00pm 23.3 21.8 13.2 53 5.8 NE 13 20 7 11 1015.4 1015.4 0.0
01/01:30pm 22.3 21.7 13.4 57 5.1 ENE 9 13 5 7 1015.9 1015.9 0.0
01/01:00pm 22.9 22.6 12.8 53 5.8 NE 6 13 3 7 1016.3 1016.3 0.0
01/12:30pm 23.9 23.5 14.0 54 5.8 ENE 9 13 5 7 1016.6 1016.6 0.0
01/12:00pm 24.1 23.3 11.8 46 7.0 ENE 7 13 4 7 1016.9 1016.9 0.0
01/11:30am 23.9 23.2 11.9 47 6.8 NE 7 17 4 9 1017.5 1017.5 0.0
01/11:00am 23.9 23.2 11.9 47 6.8 NE 7 15 4 8 1018.3 1018.3 0.0
01/10:30am 23.3 23.7 13.8 55 5.5 NE 4 7 2 4 1018.9 1018.9 0.0
01/10:00am 21.7 22.1 13.6 60 4.7 SSE 4 6 2 3 1019.4 1019.4 0.0
01/09:30am 20.7 20.9 13.2 62 4.3 NW 4 9 2 5 1019.6 1019.6 0.0
01/09:00am 19.8 20.3 14.0 69 3.3 WSW 4 7 2 4 1019.8 1019.8 0.0
01/08:30am 18.8 19.3 13.9 73 2.8 WSW 4 7 2 4 1019.8 1019.8 0.0
01/08:00am 18.1 18.6 14.0 77 2.3 WSW 4 6 2 3 1019.7 1019.7 0.0
01/07:30am 16.7 16.8 13.8 83 1.6 SSW 6 7 3 4 1019.3 1019.3 0.0
01/07:00am 15.3 16.5 13.8 91 0.8 CALM 0 0 0 0 1019.1 1019.1 0.0
01/06:30am 13.8 14.6 12.7 93 0.6 CALM 0 0 0 0 1018.8 1018.8 0.0
01/06:00am 14.5 15.3 13.7 95 0.4 WSW 2 4 1 2 1018.8 1018.8 0.0
01/05:30am 13.5 14.3 12.6 94 0.5 CALM 0 4 0 2 1018.4 1018.4 0.0
01/05:00am 13.8 14.6 12.7 93 0.6 CALM 0 0 0 0 1018.0 1018.0 0.0
01/04:30am 14.1 15.0 13.0 93 0.6 CALM 0 0 0 0 1018.1 1018.1 0.0
01/04:00am 14.4 15.4 13.3 93 0.6 CALM 0 2 0 1 1018.1 1018.1 0.0
01/03:30am 14.6 15.7 13.5 93 0.6 CALM 0 0 0 0 1017.9 1017.9 0.0
01/03:00am 14.4 15.4 13.3 93 0.6 CALM 0 0 0 0 1018.1 1018.1 0.0
01/02:30am 14.3 15.3 13.2 93 0.6 CALM 0 0 0 0 1018.1 1018.1 0.0
01/02:00am 14.2 14.8 13.2 94 0.6 SSW 2 6 1 3 1018.3 1018.3 0.0
01/01:30am 14.2 15.2 13.1 93 0.6 CALM 0 0 0 0 1018.4 1018.4 0.0
01/01:00am 14.1 15.0 12.8 92 0.7 CALM 0 0 0 0 1018.5 1018.5 0.0
01/12:30am 14.3 15.2 13.0 92 0.7 CALM 0 0 0 0 1018.6 1018.6 0.0
01/12:00am 14.6 15.6 13.1 91 0.8 CALM 0 0 0 0 1018.7 1018.7 0.0
 
Date/Time
EST
Tmp

°C
App
Tmp
°C
Dew
Point
°C
Rel
Hum
%
Delta-T

°C
Wind Press
QNH
hPa
Press
MSL
hPa
Rain
since
9 am
mm
Dir
 
Spd
km/h
Gust
km/h
Spd
kts
Gust
kts
31/11:30pm 14.7 15.7 13.1 90 0.9 CALM 0 0 0 0 1018.8 1018.8 0.0
31/11:00pm 14.9 15.9 13.3 90 0.9 CALM 0 0 0 0 1018.8 1018.8 0.0
31/10:30pm 15.1 16.2 13.6 91 0.8 CALM 0 0 0 0 1018.8 1018.8 0.0
31/10:00pm 15.4 16.5 13.4 88 1.1 CALM 0 0 0 0 1018.8 1018.8 0.0
31/09:30pm 15.9 17.0 13.6 86 1.3 CALM 0 0 0 0 1018.6 1018.6 0.0
31/09:00pm 16.4 17.5 13.5 83 1.6 CALM 0 0 0 0 1018.5 1018.5 0.0
31/08:30pm 17.1 18.3 13.8 81 1.9 CALM 0 0 0 0 1018.5 1018.5 0.0
31/08:00pm 17.5 18.3 13.8 79 2.1 ENE 2 4 1 2 1018.4 1018.4 0.0
31/07:30pm 18.0 18.7 13.3 74 2.7 NE 2 4 1 2 1018.3 1018.3 0.0
31/07:00pm 18.5 18.8 13.4 72 2.9 E 4 7 2 4 1017.9 1017.9 0.0
31/06:30pm 18.9 18.7 13.1 69 3.3 E 6 11 3 6 1017.5 1017.5 0.0
31/06:00pm 19.5 19.3 13.0 66 3.7 ENE 6 9 3 5 1017.2 1017.2 0.0
31/05:30pm 19.9 19.1 12.9 64 4.0 E 9 15 5 8 1016.8 1016.8 0.0
31/05:00pm 20.7 19.5 12.9 61 4.4 NE 11 19 6 10 1016.5 1016.5 0.0
31/04:30pm 21.2 19.8 12.3 57 5.0 ENE 11 19 6 10 1016.2 1016.2 0.0
31/04:00pm 22.0 20.5 12.0 53 5.6 ENE 11 19 6 10 1015.9 1015.9 0.0
31/03:30pm 22.3 20.7 11.7 51 5.9 ENE 11 17 6 9 1015.6 1015.6 0.0
31/03:00pm 23.2 21.8 10.9 46 6.8 NE 9 15 5 8 1015.5 1015.5 0.0
31/02:30pm 23.7 22.4 11.1 45 7.0 ENE 9 15 5 8 1015.4 1015.4 0.0
31/02:00pm 25.1 23.7 9.0 36 8.7 WSW 6 9 3 5 1015.5 1015.5 0.0
31/01:30pm 24.9 23.5 9.6 38 8.4 SW 7 19 4 10 1015.8 1015.8 0.0
31/01:00pm 24.1 22.6 9.3 39 8.0 SSE 7 13 4 7 1016.2 1016.2 0.0
31/12:30pm 23.8 22.7 9.8 41 7.6 WSW 6 13 3 7 1016.7 1016.7 0.0
31/12:00pm 23.6 22.7 10.6 44 7.2 SSW 6 13 3 7 1017.2 1017.2 0.0
31/11:30am 22.8 22.4 11.2 48 6.5 SE 4 9 2 5 1017.7 1017.7 0.0
31/11:00am 22.2 21.0 10.4 47 6.4 W 7 13 4 7 1018.2 1018.2 0.0
31/10:30am 21.8 20.7 10.6 49 6.1 W 7 13 4 7 1018.7 1018.7 0.0
31/10:00am 21.2 20.4 11.0 52 5.6 SW 6 11 3 6 1018.9 1018.9 0.0
31/09:30am 20.0 19.1 10.7 55 5.1 W 6 7 3 4 1019.0 1019.0 0.0
31/09:00am 19.5 18.7 11.0 58 4.6 SW 6 11 3 6 1019.2 1019.2 0.0
31/08:30am 18.1 17.4 11.4 65 3.7 WSW 6 9 3 5 1019.4 1019.4 0.0
31/08:00am 16.8 16.0 10.9 68 3.2 SW 6 11 3 6 1019.3 1019.3 0.0
31/07:30am 16.2 16.3 11.4 73 2.6 WSW 2 4 1 2 1019.1 1019.1 0.0
31/07:00am 15.2 14.9 11.4 78 2.0 SSW 4 9 2 5 1019.0 1019.0 0.0
31/06:30am 13.9 13.9 11.1 83 1.5 SW 2 6 1 3 1018.8 1018.8 0.0
31/06:00am 13.7 13.2 10.7 82 1.6 SW 4 9 2 5 1018.5 1018.5 0.0
31/05:30am 13.9 13.8 10.7 81 1.7 WSW 2 4 1 2 1018.2 1018.2 0.0
31/05:00am 14.5 14.4 10.7 78 2.0 WSW 2 6 1 3 1018.0 1018.0 0.0
31/04:30am 15.0 15.3 10.8 76 2.2 CALM 0 4 0 2 1018.0 1018.0 0.0
31/04:00am 15.3 15.3 11.1 76 2.2 SW 2 4 1 2 1018.0 1018.0 0.0
31/03:30am 15.4 15.4 11.2 76 2.2 WSW 2 6 1 3 1017.9 1017.9 0.0
31/03:00am 15.5 15.2 11.5 77 2.1 SW 4 7 2 4 1017.8 1017.8 0.0
31/02:30am 15.7 15.9 11.9 78 2.1 SSW 2 4 1 2 1017.9 1017.9 0.0
31/02:00am 15.2 15.8 12.0 81 1.7 CALM 0 0 0 0 1018.0 1018.0 0.0
31/01:30am 14.9 15.5 11.9 82 1.6 CALM 0 0 0 0 1018.1 1018.1 0.0
31/01:00am 14.8 15.4 11.9 83 1.6 CALM 0 0 0 0 1018.1 1018.1 0.0
31/12:30am 14.4 14.9 11.6 83 1.5 CALM 0 0 0 0 1018.3 1018.3 0.0
31/12:00am 14.7 15.1 11.3 80 1.8 CALM 0 0 0 0 1018.4 1018.4 0.0
 
Date/Time
EST
Tmp

°C
App
Tmp
°C
Dew
Point
°C
Rel
Hum
%
Delta-T

°C
Wind Press
QNH
hPa
Press
MSL
hPa
Rain
since
9 am
mm
Dir
 
Spd
km/h
Gust
km/h
Spd
kts
Gust
kts
30/11:30pm 15.0 15.3 11.0 77 2.1 CALM 0 0 0 0 1018.5 1018.5 0.0
30/11:00pm 15.8 16.2 11.4 75 2.4 CALM 0 0 0 0 1018.6 1018.6 0.0
30/10:30pm 15.8 16.2 11.4 75 2.4 CALM 0 0 0 0 1018.5 1018.5 0.0
30/10:00pm 15.7 16.1 11.3 75 2.4 CALM 0 0 0 0 1018.4 1018.4 0.0
30/09:30pm 15.4 15.8 11.2 76 2.2 CALM 0 4 0 2 1018.3 1018.3 0.0
30/09:00pm 15.8 16.2 11.2 74 2.5 CALM 0 2 0 1 1018.5 1018.5 0.0
30/08:30pm 16.6 17.1 11.7 73 2.7 CALM 0 0 0 0 1018.5 1018.5 0.0
30/08:00pm 16.4 16.8 11.1 71 2.8 CALM 0 4 0 2 1018.3 1018.3 0.0
30/07:30pm 16.6 16.6 11.1 70 3.0 N 2 4 1 2 1018.1 1018.1 0.0

Latest Capital City Observations: Canberra | Sydney | Melbourne | Brisbane | Adelaide | Perth | Hobart | Darwin

Other Formats:

Comma delimited format used in spreadsheet applications
http://www.bom.gov.au/fwo/IDQ60901/IDQ60901.94576.axf

JavaScript Object Notation format (JSON) in row-major order
http://www.bom.gov.au/fwo/IDQ60901/IDQ60901.94576.json